createdAt,value
2022-12-25T00:02:25.000Z,3.35
2022-12-25T00:07:24.000Z,3.22
2022-12-25T00:12:24.000Z,3.17
2022-12-25T00:17:24.000Z,3.01
2022-12-25T00:22:24.000Z,2.84
2022-12-25T00:27:25.000Z,2.97
2022-12-25T00:32:24.000Z,2.93
2022-12-25T00:37:25.000Z,3.08
2022-12-25T00:47:25.000Z,3.02
2022-12-25T00:52:24.000Z,2.79
2022-12-25T18:52:25.000Z,6.21
2022-12-25T18:57:25.000Z,6
2022-12-25T19:02:24.000Z,6.22
2022-12-25T19:07:25.000Z,5.76
2022-12-25T19:12:24.000Z,6.2
2022-12-25T19:17:24.000Z,6.04
2022-12-25T19:22:25.000Z,6.06
2022-12-25T19:27:25.000Z,5.43
2022-12-25T19:32:24.000Z,5.21
2022-12-25T19:37:25.000Z,4.82
2022-12-25T19:42:24.000Z,4.75
2022-12-25T19:47:24.000Z,3.83
2022-12-25T19:52:25.000Z,2.8
2022-12-25T19:57:24.000Z,3.14
2022-12-25T20:02:25.000Z,3.29
2022-12-25T20:07:24.000Z,3.34
2022-12-25T20:12:25.000Z,3.46
2022-12-25T20:17:24.000Z,2.39
2022-12-25T20:22:24.000Z,1.76
2022-12-25T20:27:24.000Z,1.95
2022-12-25T20:32:24.000Z,2.12
2022-12-25T20:37:25.000Z,2.25
2022-12-25T20:42:24.000Z,2.48
2022-12-25T20:47:25.000Z,2.35
2022-12-25T20:52:24.000Z,2.71
2022-12-25T20:57:25.000Z,2.3
2022-12-25T21:02:24.000Z,2.52
2022-12-25T21:07:24.000Z,2.27
2022-12-25T21:12:24.000Z,2.28
2022-12-25T21:17:24.000Z,2.25
2022-12-25T21:22:24.000Z,2.18
2022-12-25T21:27:25.000Z,2.12
2022-12-25T21:32:24.000Z,2.21
2022-12-25T21:37:25.000Z,2.43
2022-12-25T21:42:25.000Z,2.49
2022-12-25T21:47:24.000Z,2.74
2022-12-25T21:52:25.000Z,2.92
2022-12-25T21:57:25.000Z,3.84
2022-12-25T22:02:24.000Z,2.73
2022-12-25T22:07:25.000Z,2.38
2022-12-25T22:12:24.000Z,2.35
2022-12-25T22:17:25.000Z,2.52
2022-12-25T22:22:24.000Z,2.21
2022-12-25T22:27:24.000Z,2.07
2022-12-25T22:32:24.000Z,2.36
2022-12-25T22:37:24.000Z,2.22
2022-12-25T22:42:25.000Z,2.02
2022-12-25T22:47:24.000Z,2.1
2022-12-25T22:52:24.000Z,1.95
2022-12-25T22:57:24.000Z,2.04
2022-12-25T23:02:24.000Z,2.05
2022-12-25T23:07:24.000Z,1.99
2022-12-25T23:12:24.000Z,2.16
2022-12-25T23:17:25.000Z,2.25
2022-12-25T23:22:24.000Z,2.06
2022-12-25T23:27:24.000Z,2.01
2022-12-25T23:32:24.000Z,2.11
2022-12-25T23:37:24.000Z,2.11
2022-12-25T23:42:24.000Z,2.27
2022-12-25T23:47:24.000Z,2.5
2022-12-25T23:52:25.000Z,2.79
2022-12-25T23:57:24.000Z,3.05
